Map

Track Data

SID SEASON NUMBER BASIN SUBBASIN NAME ISO_TIME NATURE LAT LON WMO_WIND WMO_PRES WMO_AGENCY TRACK_TYPE DIST2LAND LANDFALL IFLAG USA_AGENCY USA_ATCF_ID USA_LAT USA_LON USA_RECORD USA_STATUS USA_WIND USA_PRES USA_SSHS USA_R34_NE USA_R34_SE USA_R34_SW USA_R34_NW USA_R50_NE USA_R50_SE USA_R50_SW USA_R50_NW USA_R64_NE USA_R64_SE USA_R64_SW USA_R64_NW USA_POCI USA_ROCI USA_RMW USA_EYE TOKYO_LAT TOKYO_LON TOKYO_GRADE TOKYO_WIND TOKYO_PRES TOKYO_R50_DIR TOKYO_R50_LONG TOKYO_R50_SHORT TOKYO_R30_DIR TOKYO_R30_LONG TOKYO_R30_SHORT TOKYO_LAND CMA_LAT CMA_LON CMA_CAT CMA_WIND CMA_PRES HKO_LAT HKO_LON HKO_CAT HKO_WIND HKO_PRES NEWDELHI_LAT NEWDELHI_LON NEWDELHI_GRADE NEWDELHI_WIND NEWDELHI_PRES NEWDELHI_CI NEWDELHI_DP NEWDELHI_POCI REUNION_LAT REUNION_LON REUNION_TYPE REUNION_WIND REUNION_PRES REUNION_TNUM REUNION_CI REUNION_RMW REUNION_R34_NE REUNION_R34_SE REUNION_R34_SW REUNION_R34_NW REUNION_R50_NE REUNION_R50_SE REUNION_R50_SW REUNION_R50_NW REUNION_R64_NE REUNION_R64_SE REUNION_R64_SW REUNION_R64_NW BOM_LAT BOM_LON BOM_TYPE BOM_WIND BOM_PRES BOM_TNUM BOM_CI BOM_RMW BOM_R34_NE BOM_R34_SE BOM_R34_SW BOM_R34_NW BOM_R50_NE BOM_R50_SE BOM_R50_SW BOM_R50_NW BOM_R64_NE BOM_R64_SE BOM_R64_SW BOM_R64_NW BOM_ROCI BOM_POCI BOM_EYE BOM_POS_METHOD BOM_PRES_METHOD NADI_LAT NADI_LON NADI_CAT NADI_WIND NADI_PRES WELLINGTON_LAT WELLINGTON_LON WELLINGTON_WIND WELLINGTON_PRES DS824_LAT DS824_LON DS824_STAGE DS824_WIND DS824_PRES TD9636_LAT TD9636_LON TD9636_STAGE TD9636_WIND TD9636_PRES TD9635_LAT TD9635_LON TD9635_WIND TD9635_PRES TD9635_ROCI NEUMANN_LAT NEUMANN_LON NEUMANN_CLASS NEUMANN_WIND NEUMANN_PRES MLC_LAT MLC_LON MLC_CLASS MLC_WIND MLC_PRES USA_GUST BOM_GUST BOM_GUST_PER REUNION_GUST REUNION_GUST_PER USA_SEAHGT USA_SEARAD_NE USA_SEARAD_SE USA_SEARAD_SW USA_SEARAD_NW STORM_SPEED STORM_DIR
1975247N12343 1975 85 NA NA NOT_NAMED 1975-09-03 12:00:00 TS 11.5000 -17.5000 20 hurdat_atl main 126 126 O_____________ hurdat_atl AL101975 11.5000 -17.5000 TD 20 -1 10 270
1975247N12343 1975 85 NA NA NOT_NAMED 1975-09-03 15:00:00 TS 11.5002 -18.0000 main 164 164 P_____________ AL101975 11.5002 -18.0000 TD 22 -1 10 270
1975247N12343 1975 85 NA NA NOT_NAMED 1975-09-03 18:00:00 TS 11.5000 -18.5000 25 hurdat_atl main 210 210 O_____________ hurdat_atl AL101975 11.5000 -18.5000 TD 25 -1 10 270
1975247N12343 1975 85 NA NA NOT_NAMED 1975-09-03 21:00:00 TS 11.4999 -19.0000 main 259 259 P_____________ AL101975 11.4999 -19.0000 TD 25 -1 10 270
1975247N12343 1975 85 NA NA NOT_NAMED 1975-09-04 00:00:00 TS 11.5000 -19.5000 25 hurdat_atl main 310 310 O_____________ hurdat_atl AL101975 11.5000 -19.5000 TD 25 -1 10 270
1975247N12343 1975 85 NA NA NOT_NAMED 1975-09-04 03:00:00 TS 11.4999 -20.0000 main 362 362 P_____________ AL101975 11.4999 -20.0000 TD 25 -1 10 270
1975247N12343 1975 85 NA NA NOT_NAMED 1975-09-04 06:00:00 TS 11.5000 -20.5000 25 hurdat_atl main 415 415 O_____________ hurdat_atl AL101975 11.5000 -20.5000 TD 25 -1 10 270
1975247N12343 1975 85 NA NA NOT_NAMED 1975-09-04 09:00:00 TS 11.4925 -21.0075 main 468 468 P_____________ AL101975 11.4925 -21.0075 TD 27 -1 10 270
1975247N12343 1975 85 NA NA NOT_NAMED 1975-09-04 12:00:00 TS 11.5000 -21.5000 30 hurdat_atl main 521 521 O_____________ hurdat_atl AL101975 11.5000 -21.5000 TD 30 -1 9 273
1975247N12343 1975 85 NA NA NOT_NAMED 1975-09-04 15:00:00 TS 11.5424 -21.9575 main 574 572 P_____________ AL101975 11.5424 -21.9575 TD 30 -1 9 276
1975247N12343 1975 85 NA NA NOT_NAMED 1975-09-04 18:00:00 TS 11.6000 -22.4000 30 hurdat_atl main 616 616 O_____________ hurdat_atl AL101975 11.6000 -22.4000 TD 30 -1 9 277
1975247N12343 1975 85 NA NA NOT_NAMED 1975-09-04 21:00:00 TS 11.6500 -22.8575 main 669 668 P_____________ AL101975 11.6500 -22.8575 TD 30 -1 9 276
1975247N12343 1975 85 NA NA NOT_NAMED 1975-09-05 00:00:00 TS 11.7000 -23.3000 30 hurdat_atl main 711 711 O_____________ hurdat_atl AL101975 11.7000 -23.3000 TD 30 -1 8 276
1975247N12343 1975 85 NA NA NOT_NAMED 1975-09-05 03:00:00 TS 11.7424 -23.7001 main 750 750 P_____________ AL101975 11.7424 -23.7001 TD 30 -1 8 277
1975247N12343 1975 85 NA NA NOT_NAMED 1975-09-05 06:00:00 TS 11.8000 -24.1000 30 hurdat_atl main 784 784 O_____________ hurdat_atl AL101975 11.8000 -24.1000 TD 30 -1 8 281
1975247N12343 1975 85 NA NA NOT_NAMED 1975-09-05 09:00:00 TS 11.9000 -24.5499 main 820 820 P_____________ AL101975 11.9000 -24.5499 TD 27 -1 9 283
1975247N12343 1975 85 NA NA NOT_NAMED 1975-09-05 12:00:00 TS 12.0000 -25.0000 25 hurdat_atl main 866 866 O_____________ hurdat_atl AL101975 12.0000 -25.0000 TD 25 -1 9 281
1975247N12343 1975 85 NA NA NOT_NAMED 1975-09-05 15:00:00 TS 12.0574 -25.4150 main 903 903 P_____________ AL101975 12.0574 -25.4150 TD 25 -1 8 277
1975247N12343 1975 85 NA NA NOT_NAMED 1975-09-05 18:00:00 TS 12.1000 -25.8000 25 hurdat_atl main 944 944 O_____________ hurdat_atl AL101975 12.1000 -25.8000 TD 25 -1 7 277
1975247N12343 1975 85 NA NA NOT_NAMED 1975-09-05 21:00:00 TS 12.1499 -26.1575 main 985 982 P_____________ AL101975 12.1499 -26.1575 TD 25 -1 7 278
1975247N12343 1975 85 NA NA NOT_NAMED 1975-09-06 00:00:00 TS 12.2000 -26.5000 25 hurdat_atl main 1013 1013 O_____________ hurdat_atl AL101975 12.2000 -26.5000 TD 25 -1 7 278
1975247N12343 1975 85 NA NA NOT_NAMED 1975-09-06 03:00:00 TS 12.2424 -26.8426 main 1044 1044 P_____________ AL101975 12.2424 -26.8426 TD 22 -1 7 278
1975247N12343 1975 85 NA NA NOT_NAMED 1975-09-06 06:00:00 TS 12.3000 -27.2000 20 hurdat_atl main 1083 1083 O_____________ hurdat_atl AL101975 12.3000 -27.2000 TD 20 -1 7 281
1975247N12343 1975 85 NA NA NOT_NAMED 1975-09-06 09:00:00 TS 12.3901 -27.5899 main 1122 1122 P_____________ AL101975 12.3901 -27.5899 TD 20 -1 8 284
1975247N12343 1975 85 NA NA NOT_NAMED 1975-09-06 12:00:00 TS 12.5000 -28.0000 20 hurdat_atl main 1161 O_____________ hurdat_atl AL101975 12.5000 -28.0000 TD 20 -1 8 285

About IBTrACS Database

This database is a web-friendly format of International Best Track Archive for Climate Stewardship (IBTrACS), a global best track data archive curated by NOAA dating back to 1842.

Updated: 2021-12-03